sensor_id;sensor_type;location;lat;lon;timestamp;pressure;altitude;pressure_sealevel;temperature;humidity
3178;BME280;38141;42.666;23.344;2023-01-29T00:00:13;94754.53;;;1.05;100.00
3178;BME280;38141;42.666;23.344;2023-01-29T00:02:40;94752.75;;;1.18;100.00
3178;BME280;38141;42.666;23.344;2023-01-29T00:05:08;94751.53;;;1.07;100.00
3178;BME280;38141;42.666;23.344;2023-01-29T00:07:35;94760.41;;;1.19;100.00
3178;BME280;38141;42.666;23.344;2023-01-29T00:10:02;94768.41;;;1.19;100.00
3178;BME280;38141;42.666;23.344;2023-01-29T00:12:28;94747.69;;;1.25;100.00
3178;BME280;38141;42.666;23.344;2023-01-29T00:14:55;94770.34;;;1.40;100.00
3178;BME280;38141;42.666;23.344;2023-01-29T00:17:22;94761.69;;;1.43;100.00
3178;BME280;38141;42.666;23.344;2023-01-29T00:19:49;94756.53;;;1.17;100.00
3178;BME280;38141;42.666;23.344;2023-01-29T00:22:17;94769.44;;;1.36;100.00
3178;BME280;38141;42.666;23.344;2023-01-29T00:24:43;94773.63;;;1.37;100.00
3178;BME280;38141;42.666;23.344;2023-01-29T00:27:10;94773.50;;;1.33;100.00
3178;BME280;38141;42.666;23.344;2023-01-29T00:29:37;94787.38;;;1.47;100.00
3178;BME280;38141;42.666;23.344;2023-01-29T00:32:04;94781.19;;;1.34;100.00
3178;BME280;38141;42.666;23.344;2023-01-29T00:34:31;94777.84;;;1.17;100.00
3178;BME280;38141;42.666;23.344;2023-01-29T00:36:57;94775.31;;;1.20;100.00
3178;BME280;38141;42.666;23.344;2023-01-29T00:39:30;94777.88;;;1.38;100.00
3178;BME280;38141;42.666;23.344;2023-01-29T00:42:03;94777.00;;;1.54;100.00
3178;BME280;38141;42.666;23.344;2023-01-29T00:44:48;94781.78;;;1.40;100.00
3178;BME280;38141;42.666;23.344;2023-01-29T00:47:23;94780.97;;;1.10;100.00
3178;BME280;38141;42.666;23.344;2023-01-29T00:49:57;94784.91;;;1.13;100.00
3178;BME280;38141;42.666;23.344;2023-01-29T00:52:25;94784.44;;;1.11;100.00
3178;BME280;38141;42.666;23.344;2023-01-29T00:54:54;94761.28;;;1.03;100.00
3178;BME280;38141;42.666;23.344;2023-01-29T00:57:22;94782.19;;;1.21;100.00
3178;BME280;38141;42.666;23.344;2023-01-29T00:59:49;94778.03;;;1.03;100.00
3178;BME280;38141;42.666;23.344;2023-01-29T01:02:16;94778.63;;;1.17;100.00
3178;BME280;38141;42.666;23.344;2023-01-29T01:05:09;94782.41;;;1.08;100.00
3178;BME280;38141;42.666;23.344;2023-01-29T01:07:38;94771.41;;;1.09;100.00
3178;BME280;38141;42.666;23.344;2023-01-29T01:10:08;94778.00;;;1.12;100.00
3178;BME280;38141;42.666;23.344;2023-01-29T01:12:53;94776.88;;;1.21;100.00
3178;BME280;38141;42.666;23.344;2023-01-29T01:15:21;94767.38;;;1.03;100.00
3178;BME280;38141;42.666;23.344;2023-01-29T01:17:52;94775.69;;;1.02;100.00
3178;BME280;38141;42.666;23.344;2023-01-29T01:20:19;94781.66;;;0.99;100.00
3178;BME280;38141;42.666;23.344;2023-01-29T01:22:45;94768.53;;;0.94;100.00
3178;BME280;38141;42.666;23.344;2023-01-29T01:25:14;94756.00;;;0.94;100.00
3178;BME280;38141;42.666;23.344;2023-01-29T01:27:41;94779.53;;;0.83;100.00
3178;BME280;38141;42.666;23.344;2023-01-29T01:30:11;94774.69;;;0.77;100.00
3178;BME280;38141;42.666;23.344;2023-01-29T01:32:38;94776.09;;;0.74;100.00
3178;BME280;38141;42.666;23.344;2023-01-29T01:35:06;94764.38;;;0.67;100.00
3178;BME280;38141;42.666;23.344;2023-01-29T01:37:33;94768.00;;;0.62;100.00
3178;BME280;38141;42.666;23.344;2023-01-29T01:40:02;94773.19;;;0.59;100.00
3178;BME280;38141;42.666;23.344;2023-01-29T01:42:31;94772.66;;;0.74;100.00
3178;BME280;38141;42.666;23.344;2023-01-29T01:44:59;94777.06;;;0.70;100.00
3178;BME280;38141;42.666;23.344;2023-01-29T01:47:34;94768.81;;;0.54;100.00
3178;BME280;38141;42.666;23.344;2023-01-29T01:50:08;94779.09;;;0.64;100.00
3178;BME280;38141;42.666;23.344;2023-01-29T01:52:38;94782.56;;;0.56;100.00
3178;BME280;38141;42.666;23.344;2023-01-29T01:55:11;94780.06;;;0.51;100.00
3178;BME280;38141;42.666;23.344;2023-01-29T01:57:41;94782.13;;;0.54;100.00
3178;BME280;38141;42.666;23.344;2023-01-29T02:00:13;94788.03;;;0.60;100.00
3178;BME280;38141;42.666;23.344;2023-01-29T02:02:42;94787.25;;;0.68;100.00
3178;BME280;38141;42.666;23.344;2023-01-29T02:05:29;94797.44;;;0.57;100.00
3178;BME280;38141;42.666;23.344;2023-01-29T02:08:14;94794.13;;;0.60;100.00
3178;BME280;38141;42.666;23.344;2023-01-29T02:11:00;94795.84;;;0.65;100.00
3178;BME280;38141;42.666;23.344;2023-01-29T02:13:28;94776.47;;;0.47;100.00
3178;BME280;38141;42.666;23.344;2023-01-29T02:15:55;94790.06;;;0.63;100.00
3178;BME280;38141;42.666;23.344;2023-01-29T02:18:22;94794.31;;;0.55;100.00
3178;BME280;38141;42.666;23.344;2023-01-29T02:21:03;94791.50;;;0.52;100.00
3178;BME280;38141;42.666;23.344;2023-01-29T02:24:04;94793.84;;;0.62;100.00
3178;BME280;38141;42.666;23.344;2023-01-29T02:26:52;94794.97;;;0.43;100.00
3178;BME280;38141;42.666;23.344;2023-01-29T02:29:31;94801.50;;;0.46;100.00
3178;BME280;38141;42.666;23.344;2023-01-29T02:32:11;94798.56;;;0.48;100.00
3178;BME280;38141;42.666;23.344;2023-01-29T02:34:51;94795.56;;;0.58;100.00
3178;BME280;38141;42.666;23.344;2023-01-29T02:37:40;94811.69;;;0.61;100.00
3178;BME280;38141;42.666;23.344;2023-01-29T02:40:16;94807.44;;;0.60;100.00
3178;BME280;38141;42.666;23.344;2023-01-29T02:42:50;94809.19;;;0.56;100.00
3178;BME280;38141;42.666;23.344;2023-01-29T02:45:24;94795.22;;;0.59;100.00
3178;BME280;38141;42.666;23.344;2023-01-29T02:47:56;94816.84;;;0.58;100.00
3178;BME280;38141;42.666;23.344;2023-01-29T02:50:28;94821.56;;;0.52;100.00
3178;BME280;38141;42.666;23.344;2023-01-29T02:53:01;94816.25;;;0.43;100.00
3178;BME280;38141;42.666;23.344;2023-01-29T02:55:34;94805.75;;;0.47;100.00
3178;BME280;38141;42.666;23.344;2023-01-29T02:58:08;94797.44;;;0.57;100.00
3178;BME280;38141;42.666;23.344;2023-01-29T03:00:40;94810.09;;;0.60;100.00
3178;BME280;38141;42.666;23.344;2023-01-29T03:03:12;94819.44;;;0.83;100.00
3178;BME280;38141;42.666;23.344;2023-01-29T03:05:44;94837.78;;;0.85;100.00
3178;BME280;38141;42.666;23.344;2023-01-29T03:08:22;94815.06;;;0.87;100.00
3178;BME280;38141;42.666;23.344;2023-01-29T03:11:03;94820.09;;;0.80;100.00
3178;BME280;38141;42.666;23.344;2023-01-29T03:13:35;94807.59;;;0.72;100.00
3178;BME280;38141;42.666;23.344;2023-01-29T03:16:09;94811.84;;;0.56;100.00
3178;BME280;38141;42.666;23.344;2023-01-29T03:18:41;94822.59;;;0.68;100.00
3178;BME280;38141;42.666;23.344;2023-01-29T03:21:15;94821.84;;;0.76;100.00
3178;BME280;38141;42.666;23.344;2023-01-29T03:24:02;94819.63;;;0.70;100.00
3178;BME280;38141;42.666;23.344;2023-01-29T03:26:46;94818.53;;;0.79;100.00
3178;BME280;38141;42.666;23.344;2023-01-29T03:29:33;94824.63;;;0.80;100.00
3178;BME280;38141;42.666;23.344;2023-01-29T03:32:21;94831.81;;;0.88;100.00
3178;BME280;38141;42.666;23.344;2023-01-29T03:34:55;94813.69;;;0.81;100.00
3178;BME280;38141;42.666;23.344;2023-01-29T03:37:29;94810.59;;;0.62;100.00
3178;BME280;38141;42.666;23.344;2023-01-29T03:39:59;94825.44;;;0.72;100.00
3178;BME280;38141;42.666;23.344;2023-01-29T03:42:37;94828.09;;;0.80;100.00
3178;BME280;38141;42.666;23.344;2023-01-29T03:45:14;94822.94;;;0.67;100.00
3178;BME280;38141;42.666;23.344;2023-01-29T03:47:46;94819.00;;;0.73;100.00
3178;BME280;38141;42.666;23.344;2023-01-29T03:50:31;94826.78;;;0.86;100.00
3178;BME280;38141;42.666;23.344;2023-01-29T03:53:05;94827.09;;;0.94;100.00
3178;BME280;38141;42.666;23.344;2023-01-29T03:55:41;94825.53;;;0.93;100.00
3178;BME280;38141;42.666;23.344;2023-01-29T03:58:19;94822.91;;;0.84;100.00
3178;BME280;38141;42.666;23.344;2023-01-29T04:00:51;94815.59;;;0.72;100.00
3178;BME280;38141;42.666;23.344;2023-01-29T04:03:23;94819.34;;;0.63;100.00
3178;BME280;38141;42.666;23.344;2023-01-29T04:05:54;94837.63;;;0.81;100.00
3178;BME280;38141;42.666;23.344;2023-01-29T04:08:32;94789.19;;;0.33;100.00
3178;BME280;38141;42.666;23.344;2023-01-29T04:11:03;94824.16;;;0.78;100.00
3178;BME280;38141;42.666;23.344;2023-01-29T04:13:34;94831.84;;;0.71;100.00
3178;BME280;38141;42.666;23.344;2023-01-29T04:16:04;94820.31;;;0.58;100.00
3178;BME280;38141;42.666;23.344;2023-01-29T04:18:33;94833.13;;;0.65;100.00
3178;BME280;38141;42.666;23.344;2023-01-29T04:21:01;94819.03;;;0.56;100.00
3178;BME280;38141;42.666;23.344;2023-01-29T04:23:31;94839.38;;;0.69;100.00
3178;BME280;38141;42.666;23.344;2023-01-29T04:26:09;94830.31;;;0.61;100.00
3178;BME280;38141;42.666;23.344;2023-01-29T04:28:52;94847.69;;;0.67;100.00
3178;BME280;38141;42.666;23.344;2023-01-29T04:31:26;94835.63;;;0.70;100.00
3178;BME280;38141;42.666;23.344;2023-01-29T04:34:03;94815.94;;;0.54;100.00
3178;BME280;38141;42.666;23.344;2023-01-29T04:36:37;94829.19;;;0.71;100.00
3178;BME280;38141;42.666;23.344;2023-01-29T04:39:12;94813.25;;;0.62;100.00
3178;BME280;38141;42.666;23.344;2023-01-29T04:41:49;94844.19;;;0.84;100.00
3178;BME280;38141;42.666;23.344;2023-01-29T04:44:22;94853.28;;;0.74;100.00
3178;BME280;38141;42.666;23.344;2023-01-29T04:46:56;94844.06;;;0.72;100.00
3178;BME280;38141;42.666;23.344;2023-01-29T04:49:31;94832.00;;;0.74;100.00
3178;BME280;38141;42.666;23.344;2023-01-29T04:52:05;94830.41;;;0.82;100.00
3178;BME280;38141;42.666;23.344;2023-01-29T04:54:44;94843.19;;;1.06;100.00
3178;BME280;38141;42.666;23.344;2023-01-29T04:57:17;94848.72;;;0.92;100.00
3178;BME280;38141;42.666;23.344;2023-01-29T04:59:55;94855.94;;;0.83;100.00
3178;BME280;38141;42.666;23.344;2023-01-29T05:02:25;94838.59;;;0.77;100.00
3178;BME280;38141;42.666;23.344;2023-01-29T05:04:55;94835.63;;;0.70;100.00
3178;BME280;38141;42.666;23.344;2023-01-29T05:07:24;94847.66;;;0.76;100.00
3178;BME280;38141;42.666;23.344;2023-01-29T05:09:53;94850.34;;;0.76;100.00
3178;BME280;38141;42.666;23.344;2023-01-29T05:12:20;94838.28;;;0.70;100.00
3178;BME280;38141;42.666;23.344;2023-01-29T05:14:51;94859.13;;;0.68;100.00
3178;BME280;38141;42.666;23.344;2023-01-29T05:17:19;94855.69;;;0.59;100.00
3178;BME280;38141;42.666;23.344;2023-01-29T05:19:46;94861.78;;;0.68;100.00
3178;BME280;38141;42.666;23.344;2023-01-29T05:22:16;94862.41;;;0.56;100.00
3178;BME280;38141;42.666;23.344;2023-01-29T05:24:47;94848.97;;;0.44;100.00
3178;BME280;38141;42.666;23.344;2023-01-29T05:27:16;94856.25;;;0.73;100.00
3178;BME280;38141;42.666;23.344;2023-01-29T05:30:01;94859.88;;;0.77;100.00
3178;BME280;38141;42.666;23.344;2023-01-29T05:32:28;94850.00;;;0.69;100.00
3178;BME280;38141;42.666;23.344;2023-01-29T05:34:55;94871.66;;;0.67;100.00
3178;BME280;38141;42.666;23.344;2023-01-29T05:37:23;94876.03;;;0.72;100.00
3178;BME280;38141;42.666;23.344;2023-01-29T05:39:50;94881.66;;;0.70;100.00
3178;BME280;38141;42.666;23.344;2023-01-29T05:42:16;94871.31;;;0.69;100.00
3178;BME280;38141;42.666;23.344;2023-01-29T05:44:43;94865.06;;;0.65;100.00
3178;BME280;38141;42.666;23.344;2023-01-29T05:47:10;94865.38;;;0.55;100.00
3178;BME280;38141;42.666;23.344;2023-01-29T05:49:37;94876.34;;;0.62;100.00
3178;BME280;38141;42.666;23.344;2023-01-29T05:52:04;94877.72;;;0.59;100.00
3178;BME280;38141;42.666;23.344;2023-01-29T05:54:32;94883.84;;;0.60;100.00
3178;BME280;38141;42.666;23.344;2023-01-29T05:56:59;94880.25;;;0.56;100.00
3178;BME280;38141;42.666;23.344;2023-01-29T05:59:25;94879.44;;;0.64;100.00
3178;BME280;38141;42.666;23.344;2023-01-29T06:01:52;94890.09;;;0.64;100.00
3178;BME280;38141;42.666;23.344;2023-01-29T06:04:19;94886.19;;;0.70;100.00
3178;BME280;38141;42.666;23.344;2023-01-29T06:06:46;94899.66;;;0.56;100.00
3178;BME280;38141;42.666;23.344;2023-01-29T06:09:13;94895.41;;;0.64;100.00
3178;BME280;38141;42.666;23.344;2023-01-29T06:11:41;94898.56;;;0.49;100.00
3178;BME280;38141;42.666;23.344;2023-01-29T06:14:09;94900.44;;;0.57;100.00
3178;BME280;38141;42.666;23.344;2023-01-29T06:16:36;94885.72;;;0.59;100.00
3178;BME280;38141;42.666;23.344;2023-01-29T06:19:03;94903.25;;;0.60;100.00
3178;BME280;38141;42.666;23.344;2023-01-29T06:21:29;94886.66;;;0.55;100.00
3178;BME280;38141;42.666;23.344;2023-01-29T06:23:56;94912.81;;;0.70;100.00
3178;BME280;38141;42.666;23.344;2023-01-29T06:26:23;94781.03;;;-0.31;100.00
3178;BME280;38141;42.666;23.344;2023-01-29T06:28:54;94920.50;;;0.71;100.00
3178;BME280;38141;42.666;23.344;2023-01-29T06:31:21;94920.94;;;0.91;100.00
3178;BME280;38141;42.666;23.344;2023-01-29T06:33:47;94919.22;;;0.77;100.00
3178;BME280;38141;42.666;23.344;2023-01-29T06:36:14;94923.59;;;0.82;100.00
3178;BME280;38141;42.666;23.344;2023-01-29T06:38:41;94910.31;;;0.65;100.00
3178;BME280;38141;42.666;23.344;2023-01-29T06:41:09;94924.06;;;0.84;100.00
3178;BME280;38141;42.666;23.344;2023-01-29T06:43:36;94909.03;;;0.88;100.00
3178;BME280;38141;42.666;23.344;2023-01-29T06:46:07;94932.34;;;0.91;100.00
3178;BME280;38141;42.666;23.344;2023-01-29T06:48:34;94916.72;;;0.81;100.00
3178;BME280;38141;42.666;23.344;2023-01-29T06:51:02;94938.28;;;1.05;100.00
3178;BME280;38141;42.666;23.344;2023-01-29T06:53:30;94910.91;;;0.79;100.00
3178;BME280;38141;42.666;23.344;2023-01-29T06:55:57;94948.19;;;1.13;100.00
3178;BME280;38141;42.666;23.344;2023-01-29T06:58:24;94947.19;;;1.35;100.00
3178;BME280;38141;42.666;23.344;2023-01-29T07:00:51;94954.09;;;1.36;100.00
3178;BME280;38141;42.666;23.344;2023-01-29T07:03:19;94923.69;;;1.28;100.00
3178;BME280;38141;42.666;23.344;2023-01-29T07:05:50;94932.47;;;1.20;100.00
3178;BME280;38141;42.666;23.344;2023-01-29T07:08:17;94944.19;;;1.45;100.00
3178;BME280;38141;42.666;23.344;2023-01-29T07:10:47;94934.81;;;1.30;100.00
3178;BME280;38141;42.666;23.344;2023-01-29T07:13:14;94954.22;;;1.40;100.00
3178;BME280;38141;42.666;23.344;2023-01-29T07:15:41;94941.66;;;1.49;100.00
3178;BME280;38141;42.666;23.344;2023-01-29T07:18:09;94965.63;;;1.57;100.00
3178;BME280;38141;42.666;23.344;2023-01-29T07:20:41;94970.00;;;1.62;100.00
3178;BME280;38141;42.666;23.344;2023-01-29T07:23:08;94955.59;;;1.46;100.00
3178;BME280;38141;42.666;23.344;2023-01-29T07:25:36;94939.63;;;1.37;100.00
3178;BME280;38141;42.666;23.344;2023-01-29T07:28:03;94934.66;;;1.36;100.00
3178;BME280;38141;42.666;23.344;2023-01-29T07:30:30;94971.16;;;1.35;100.00
3178;BME280;38141;42.666;23.344;2023-01-29T07:33:00;94971.16;;;1.35;100.00
3178;BME280;38141;42.666;23.344;2023-01-29T07:35:27;94952.06;;;1.24;100.00
3178;BME280;38141;42.666;23.344;2023-01-29T07:37:55;94893.06;;;0.88;100.00
3178;BME280;38141;42.666;23.344;2023-01-29T07:40:28;94975.69;;;1.43;100.00
3178;BME280;38141;42.666;23.344;2023-01-29T07:42:58;94975.78;;;1.64;100.00
3178;BME280;38141;42.666;23.344;2023-01-29T07:45:25;94975.59;;;1.69;100.00
3178;BME280;38141;42.666;23.344;2023-01-29T07:47:53;94975.81;;;1.55;100.00
3178;BME280;38141;42.666;23.344;2023-01-29T07:50:20;94970.81;;;1.54;100.00
3178;BME280;38141;42.666;23.344;2023-01-29T07:52:47;94967.47;;;1.65;100.00
3178;BME280;38141;42.666;23.344;2023-01-29T07:55:19;94947.19;;;1.35;100.00
3178;BME280;38141;42.666;23.344;2023-01-29T07:57:46;94928.91;;;0.82;100.00
3178;BME280;38141;42.666;23.344;2023-01-29T08:02:40;94988.09;;;1.39;100.00
3178;BME280;38141;42.666;23.344;2023-01-29T08:05:08;94975.03;;;1.46;100.00
3178;BME280;38141;42.666;23.344;2023-01-29T08:07:34;94994.47;;;1.55;100.00
3178;BME280;38141;42.666;23.344;2023-01-29T08:10:01;94989.94;;;1.47;100.00
3178;BME280;38141;42.666;23.344;2023-01-29T08:12:29;94990.22;;;1.63;100.00
3178;BME280;38141;42.666;23.344;2023-01-29T08:14:56;94998.69;;;1.65;100.00
3178;BME280;38141;42.666;23.344;2023-01-29T08:17:23;95003.22;;;1.64;100.00
3178;BME280;38141;42.666;23.344;2023-01-29T08:19:49;94996.19;;;1.51;100.00
3178;BME280;38141;42.666;23.344;2023-01-29T08:22:16;94995.13;;;1.44;100.00
3178;BME280;38141;42.666;23.344;2023-01-29T08:24:43;94993.72;;;1.38;100.00
3178;BME280;38141;42.666;23.344;2023-01-29T08:27:10;94980.22;;;1.51;100.00
3178;BME280;38141;42.666;23.344;2023-01-29T08:29:38;94988.66;;;1.62;100.00
3178;BME280;38141;42.666;23.344;2023-01-29T08:32:08;94994.16;;;1.57;100.00
3178;BME280;38141;42.666;23.344;2023-01-29T08:34:35;95003.84;;;1.70;100.00
3178;BME280;38141;42.666;23.344;2023-01-29T08:37:02;95004.16;;;1.68;100.00
3178;BME280;38141;42.666;23.344;2023-01-29T08:39:29;95005.09;;;1.72;100.00
3178;BME280;38141;42.666;23.344;2023-01-29T08:41:55;94988.81;;;1.57;100.00
3178;BME280;38141;42.666;23.344;2023-01-29T08:44:22;95007.97;;;1.59;100.00
3178;BME280;38141;42.666;23.344;2023-01-29T08:46:52;95011.25;;;1.56;100.00
3178;BME280;38141;42.666;23.344;2023-01-29T08:49:18;95014.59;;;1.36;100.00
3178;BME280;38141;42.666;23.344;2023-01-29T08:51:45;95022.88;;;1.43;100.00
3178;BME280;38141;42.666;23.344;2023-01-29T08:54:12;95013.78;;;1.44;100.00
3178;BME280;38141;42.666;23.344;2023-01-29T08:56:38;95019.00;;;1.31;100.00
3178;BME280;38141;42.666;23.344;2023-01-29T08:59:05;95021.31;;;1.42;100.00
3178;BME280;38141;42.666;23.344;2023-01-29T09:01:32;95031.97;;;1.59;100.00
3178;BME280;38141;42.666;23.344;2023-01-29T09:04:00;95039.16;;;1.58;100.00
3178;BME280;38141;42.666;23.344;2023-01-29T09:06:27;95039.59;;;1.69;100.00
3178;BME280;38141;42.666;23.344;2023-01-29T09:08:53;95036.50;;;1.58;100.00
3178;BME280;38141;42.666;23.344;2023-01-29T09:11:20;95034.09;;;1.74;100.00
3178;BME280;38141;42.666;23.344;2023-01-29T09:13:47;95029.41;;;1.71;100.00
3178;BME280;38141;42.666;23.344;2023-01-29T09:16:14;95029.25;;;1.76;100.00
3178;BME280;38141;42.666;23.344;2023-01-29T09:18:40;95023.69;;;1.98;100.00
3178;BME280;38141;42.666;23.344;2023-01-29T09:21:09;95010.03;;;1.91;100.00
3178;BME280;38141;42.666;23.344;2023-01-29T09:23:36;95021.63;;;2.04;100.00
3178;BME280;38141;42.666;23.344;2023-01-29T09:26:03;95016.69;;;2.14;100.00
3178;BME280;38141;42.666;23.344;2023-01-29T09:28:30;95014.72;;;2.03;100.00
3178;BME280;38141;42.666;23.344;2023-01-29T09:31:00;95021.81;;;1.99;100.00
3178;BME280;38141;42.666;23.344;2023-01-29T09:33:27;95025.91;;;1.88;100.00
3178;BME280;38141;42.666;23.344;2023-01-29T09:35:55;95023.13;;;1.75;100.00
3178;BME280;38141;42.666;23.344;2023-01-29T09:38:23;95015.56;;;1.77;100.00
3178;BME280;38141;42.666;23.344;2023-01-29T09:40:57;95020.28;;;1.81;100.00
3178;BME280;38141;42.666;23.344;2023-01-29T09:43:33;95003.38;;;1.59;100.00
3178;BME280;38141;42.666;23.344;2023-01-29T09:46:13;95011.69;;;1.66;100.00
3178;BME280;38141;42.666;23.344;2023-01-29T09:48:43;95012.06;;;1.48;100.00
3178;BME280;38141;42.666;23.344;2023-01-29T09:51:17;95011.38;;;1.76;100.00
3178;BME280;38141;42.666;23.344;2023-01-29T09:53:55;95013.25;;;2.14;100.00
3178;BME280;38141;42.666;23.344;2023-01-29T09:56:26;95015.25;;;2.26;100.00
3178;BME280;38141;42.666;23.344;2023-01-29T09:58:56;95003.69;;;2.13;100.00
3178;BME280;38141;42.666;23.344;2023-01-29T10:01:28;95001.31;;;2.20;100.00
3178;BME280;38141;42.666;23.344;2023-01-29T10:04:06;95014.06;;;2.44;100.00
3178;BME280;38141;42.666;23.344;2023-01-29T10:06:52;95008.06;;;2.17;100.00
3178;BME280;38141;42.666;23.344;2023-01-29T10:09:51;95006.09;;;1.97;100.00
3178;BME280;38141;42.666;23.344;2023-01-29T10:12:38;94995.47;;;1.89;100.00
3178;BME280;38141;42.666;23.344;2023-01-29T10:15:21;94996.56;;;1.88;100.00
3178;BME280;38141;42.666;23.344;2023-01-29T10:18:11;94998.66;;;1.73;100.00
3178;BME280;38141;42.666;23.344;2023-01-29T10:21:00;94995.72;;;1.66;100.00
3178;BME280;38141;42.666;23.344;2023-01-29T10:23:32;94974.16;;;1.80;100.00
3178;BME280;38141;42.666;23.344;2023-01-29T10:26:01;95003.38;;;2.14;100.00
3178;BME280;38141;42.666;23.344;2023-01-29T10:28:33;94989.19;;;1.93;100.00
3178;BME280;38141;42.666;23.344;2023-01-29T10:31:03;94987.75;;;1.96;100.00
3178;BME280;38141;42.666;23.344;2023-01-29T10:33:37;94966.63;;;1.82;100.00
3178;BME280;38141;42.666;23.344;2023-01-29T10:36:09;94985.41;;;1.94;100.00
3178;BME280;38141;42.666;23.344;2023-01-29T10:38:42;94980.91;;;1.86;100.00
3178;BME280;38141;42.666;23.344;2023-01-29T10:41:21;94978.28;;;2.07;100.00
3178;BME280;38141;42.666;23.344;2023-01-29T10:44:00;94977.41;;;1.94;100.00
3178;BME280;38141;42.666;23.344;2023-01-29T10:46:42;94954.63;;;1.97;100.00
3178;BME280;38141;42.666;23.344;2023-01-29T10:49:25;94989.31;;;1.97;100.00
3178;BME280;38141;42.666;23.344;2023-01-29T10:52:09;94976.22;;;1.74;100.00
3178;BME280;38141;42.666;23.344;2023-01-29T10:54:55;94974.72;;;2.03;100.00
3178;BME280;38141;42.666;23.344;2023-01-29T11:00:20;94967.00;;;2.01;100.00
3178;BME280;38141;42.666;23.344;2023-01-29T11:02:49;94962.19;;;1.95;100.00
3178;BME280;38141;42.666;23.344;2023-01-29T11:05:24;94967.72;;;1.90;100.00
3178;BME280;38141;42.666;23.344;2023-01-29T11:07:59;94973.88;;;2.11;100.00
3178;BME280;38141;42.666;23.344;2023-01-29T11:10:28;94962.50;;;1.93;100.00
3178;BME280;38141;42.666;23.344;2023-01-29T11:12:58;94964.75;;;1.83;100.00
3178;BME280;38141;42.666;23.344;2023-01-29T11:15:28;94959.94;;;1.67;100.00
3178;BME280;38141;42.666;23.344;2023-01-29T11:18:02;94962.22;;;1.86;100.00
3178;BME280;38141;42.666;23.344;2023-01-29T11:20:30;94960.19;;;1.83;100.00
3178;BME280;38141;42.666;23.344;2023-01-29T11:22:57;94959.38;;;1.91;100.00
3178;BME280;38141;42.666;23.344;2023-01-29T11:25:24;94943.91;;;1.76;100.00
3178;BME280;38141;42.666;23.344;2023-01-29T11:27:55;94952.81;;;2.18;100.00
3178;BME280;38141;42.666;23.344;2023-01-29T11:30:26;94946.97;;;1.95;100.00
3178;BME280;38141;42.666;23.344;2023-01-29T11:32:59;94949.88;;;2.11;100.00
3178;BME280;38141;42.666;23.344;2023-01-29T11:35:31;94941.69;;;2.37;100.00
3178;BME280;38141;42.666;23.344;2023-01-29T11:38:14;94933.13;;;2.31;100.00
3178;BME280;38141;42.666;23.344;2023-01-29T11:40:44;94922.94;;;2.24;100.00
3178;BME280;38141;42.666;23.344;2023-01-29T11:43:22;94915.34;;;2.35;100.00
3178;BME280;38141;42.666;23.344;2023-01-29T11:45:56;94934.16;;;2.39;100.00
3178;BME280;38141;42.666;23.344;2023-01-29T11:48:31;94922.25;;;2.57;100.00
3178;BME280;38141;42.666;23.344;2023-01-29T11:50:59;94926.03;;;2.56;100.00
3178;BME280;38141;42.666;23.344;2023-01-29T11:53:34;94927.13;;;2.55;100.00
3178;BME280;38141;42.666;23.344;2023-01-29T11:56:05;94922.97;;;2.45;100.00
3178;BME280;38141;42.666;23.344;2023-01-29T11:58:34;94912.59;;;2.64;100.00
3178;BME280;38141;42.666;23.344;2023-01-29T12:01:03;94910.00;;;2.56;100.00
3178;BME280;38141;42.666;23.344;2023-01-29T12:03:34;94901.00;;;2.19;100.00
3178;BME280;38141;42.666;23.344;2023-01-29T12:06:04;94913.72;;;2.43;100.00
3178;BME280;38141;42.666;23.344;2023-01-29T12:08:35;94894.13;;;2.39;100.00
3178;BME280;38141;42.666;23.344;2023-01-29T12:11:11;94911.19;;;2.67;100.00
3178;BME280;38141;42.666;23.344;2023-01-29T12:13:39;94911.75;;;2.93;100.00
3178;BME280;38141;42.666;23.344;2023-01-29T12:16:18;94900.47;;;2.88;100.00
3178;BME280;38141;42.666;23.344;2023-01-29T12:18:50;94908.75;;;2.95;100.00
3178;BME280;38141;42.666;23.344;2023-01-29T12:21:23;94911.81;;;2.85;100.00
3178;BME280;38141;42.666;23.344;2023-01-29T12:23:56;94916.13;;;2.56;100.00
3178;BME280;38141;42.666;23.344;2023-01-29T12:26:30;94900.56;;;2.38;100.00
3178;BME280;38141;42.666;23.344;2023-01-29T12:29:12;94916.00;;;2.53;100.00
3178;BME280;38141;42.666;23.344;2023-01-29T12:31:48;94908.59;;;2.58;100.00
3178;BME280;38141;42.666;23.344;2023-01-29T12:34:23;94898.63;;;2.67;100.00
3178;BME280;38141;42.666;23.344;2023-01-29T12:36:58;94917.09;;;2.73;100.00
3178;BME280;38141;42.666;23.344;2023-01-29T12:39:26;94906.84;;;2.62;100.00
3178;BME280;38141;42.666;23.344;2023-01-29T12:41:56;94929.97;;;2.91;100.00
3178;BME280;38141;42.666;23.344;2023-01-29T12:44:31;94915.94;;;3.15;100.00
3178;BME280;38141;42.666;23.344;2023-01-29T12:47:04;94901.50;;;3.28;100.00
3178;BME280;38141;42.666;23.344;2023-01-29T12:49:37;94918.06;;;2.89;100.00
3178;BME280;38141;42.666;23.344;2023-01-29T12:52:08;94921.66;;;2.93;100.00
3178;BME280;38141;42.666;23.344;2023-01-29T12:54:47;94909.50;;;2.95;100.00
3178;BME280;38141;42.666;23.344;2023-01-29T12:57:20;94909.66;;;2.78;100.00
3178;BME280;38141;42.666;23.344;2023-01-29T12:59:51;94892.88;;;2.57;100.00
3178;BME280;38141;42.666;23.344;2023-01-29T13:02:31;94919.13;;;2.55;100.00
3178;BME280;38141;42.666;23.344;2023-01-29T13:05:03;94895.09;;;2.55;100.00
3178;BME280;38141;42.666;23.344;2023-01-29T13:07:36;94907.97;;;2.32;100.00
3178;BME280;38141;42.666;23.344;2023-01-29T13:10:10;94915.41;;;2.27;100.00
3178;BME280;38141;42.666;23.344;2023-01-29T13:12:44;94903.94;;;2.26;100.00
3178;BME280;38141;42.666;23.344;2023-01-29T13:15:20;94903.91;;;2.35;100.00
3178;BME280;38141;42.666;23.344;2023-01-29T13:17:52;94903.09;;;2.55;100.00
3178;BME280;38141;42.666;23.344;2023-01-29T13:20:24;94901.34;;;2.80;100.00
3178;BME280;38141;42.666;23.344;2023-01-29T13:22:55;94909.75;;;2.69;100.00
3178;BME280;38141;42.666;23.344;2023-01-29T13:25:23;94906.03;;;2.62;100.00
3178;BME280;38141;42.666;23.344;2023-01-29T13:27:50;94885.53;;;2.54;100.00